createdAt,value
2017-09-04T00:00:41.457Z,8.40
2017-09-04T00:03:09.016Z,8.40
2017-09-04T00:05:36.586Z,8.40
2017-09-04T00:08:04.138Z,8.30
2017-09-04T00:10:31.701Z,8.30
2017-09-04T00:12:59.229Z,8.30
2017-09-04T00:15:26.757Z,8.30
2017-09-04T00:17:54.381Z,8.20
2017-09-04T00:20:21.905Z,8.20
2017-09-04T00:22:49.497Z,8.20
2017-09-04T00:25:17.043Z,8.20
2017-09-04T00:27:44.613Z,8.30
2017-09-04T00:30:12.173Z,8.40
2017-09-04T00:32:39.737Z,8.40
2017-09-04T00:35:07.293Z,8.40
2017-09-04T00:37:34.816Z,8.40
2017-09-04T00:40:02.365Z,8.50
2017-09-04T00:42:29.891Z,8.50
2017-09-04T00:44:57.408Z,8.50
2017-09-04T00:47:24.952Z,8.40
2017-09-04T00:49:52.557Z,8.40
2017-09-04T00:52:20.072Z,8.30
2017-09-04T00:54:47.666Z,8.30
2017-09-04T00:57:15.186Z,8.20
2017-09-04T00:59:42.704Z,8.30
2017-09-04T01:02:10.350Z,8.20
2017-09-04T01:04:37.878Z,8.20
2017-09-04T01:07:06.182Z,8.10
2017-09-04T01:09:33.741Z,8.10
2017-09-04T01:12:01.678Z,8.10
2017-09-04T01:14:29.965Z,8.10
2017-09-04T01:16:57.517Z,8.10
2017-09-04T01:19:25.037Z,8.10
2017-09-04T01:21:52.566Z,8.10
2017-09-04T01:24:20.123Z,8.00
2017-09-04T01:26:47.681Z,8.00
2017-09-04T01:29:15.202Z,8.00
2017-09-04T01:31:43.521Z,7.90
2017-09-04T01:34:11.080Z,7.80
2017-09-04T01:36:38.600Z,7.80
2017-09-04T01:39:06.146Z,7.70
2017-09-04T01:41:33.671Z,7.70
2017-09-04T01:44:01.193Z,7.60
2017-09-04T01:46:28.740Z,7.60
2017-09-04T01:48:56.338Z,7.60
2017-09-04T01:51:23.858Z,7.50
2017-09-04T01:53:51.401Z,7.50
2017-09-04T01:56:18.917Z,7.50
2017-09-04T01:58:46.438Z,7.50
2017-09-04T02:01:14.030Z,7.50
2017-09-04T02:03:41.590Z,7.50
2017-09-04T02:06:09.114Z,7.50
2017-09-04T02:08:36.663Z,7.40
2017-09-04T02:11:04.189Z,7.40
2017-09-04T02:13:31.733Z,7.40
2017-09-04T02:15:59.271Z,7.40
2017-09-04T02:18:26.826Z,7.40
2017-09-04T02:20:54.413Z,7.40
2017-09-04T02:23:21.975Z,7.40
2017-09-04T02:25:49.499Z,7.50
2017-09-04T02:28:17.017Z,7.60
2017-09-04T02:30:44.553Z,7.70
2017-09-04T02:33:12.101Z,7.70
2017-09-04T02:35:39.661Z,7.70
2017-09-04T02:38:07.212Z,7.80
2017-09-04T02:40:34.725Z,7.80
2017-09-04T02:43:02.360Z,7.80
2017-09-04T02:45:30.011Z,7.80
2017-09-04T02:47:57.537Z,7.90
2017-09-04T02:50:25.059Z,7.90
2017-09-04T02:52:52.683Z,8.00
2017-09-04T02:55:20.208Z,8.00
2017-09-04T02:57:47.730Z,8.10
2017-09-04T03:00:15.366Z,8.10
2017-09-04T03:02:42.902Z,8.10
2017-09-04T03:05:10.486Z,8.10
2017-09-04T03:07:38.045Z,8.10
2017-09-04T03:10:05.602Z,8.10
2017-09-04T03:12:33.133Z,8.10
2017-09-04T03:15:00.667Z,8.10
2017-09-04T03:17:28.290Z,8.10
2017-09-04T03:19:55.844Z,8.10
2017-09-04T03:22:23.385Z,8.10
2017-09-04T03:24:50.906Z,8.20
2017-09-04T03:27:18.421Z,8.20
2017-09-04T03:29:45.970Z,8.30
2017-09-04T03:32:13.537Z,8.40
2017-09-04T03:34:41.097Z,8.50
2017-09-04T03:37:08.661Z,8.50
2017-09-04T03:39:36.181Z,8.60
2017-09-04T03:42:04.491Z,8.60
2017-09-04T03:44:32.054Z,8.60
2017-09-04T03:46:59.581Z,8.60
2017-09-04T03:49:27.105Z,8.60
2017-09-04T03:51:54.640Z,8.60
2017-09-04T03:54:22.167Z,8.60
2017-09-04T03:56:49.696Z,8.60
2017-09-04T03:59:17.308Z,8.70
2017-09-04T04:01:44.828Z,8.70
2017-09-04T04:04:13.158Z,8.70
2017-09-04T04:06:40.705Z,8.70
2017-09-04T04:09:08.327Z,8.70
2017-09-04T04:11:36.612Z,8.70
2017-09-04T04:14:05.020Z,8.60
2017-09-04T04:16:32.542Z,8.60
2017-09-04T04:19:00.066Z,8.60
2017-09-04T04:21:27.706Z,8.60
2017-09-04T04:23:55.260Z,8.60
2017-09-04T04:26:22.829Z,8.60
2017-09-04T04:28:50.387Z,8.60
2017-09-04T04:31:17.946Z,8.50
2017-09-04T04:33:45.473Z,8.40
2017-09-04T04:36:13.777Z,8.30
2017-09-04T04:38:41.309Z,8.30
2017-09-04T04:41:08.898Z,8.30
2017-09-04T04:43:36.437Z,8.30
2017-09-04T04:46:03.958Z,8.30
2017-09-04T04:48:31.571Z,8.30
2017-09-04T04:50:59.212Z,8.30
2017-09-04T04:53:26.793Z,8.30
2017-09-04T04:55:54.309Z,8.30
2017-09-04T04:58:21.915Z,8.30
2017-09-04T05:00:49.473Z,8.30
2017-09-04T05:03:16.992Z,8.40
2017-09-04T05:05:45.301Z,8.40
2017-09-04T05:08:12.872Z,8.40
2017-09-04T05:10:40.430Z,8.40
2017-09-04T05:13:07.998Z,8.40
2017-09-04T05:15:35.520Z,8.40
2017-09-04T05:18:03.802Z,8.50
2017-09-04T05:20:31.394Z,8.50
2017-09-04T05:22:58.952Z,8.60
2017-09-04T05:25:26.518Z,8.70
2017-09-04T05:27:54.066Z,8.70
2017-09-04T05:30:21.633Z,8.90
2017-09-04T05:32:49.189Z,8.90
2017-09-04T05:35:16.736Z,8.90
2017-09-04T05:37:44.258Z,9.00
2017-09-04T05:40:11.786Z,8.90
2017-09-04T05:42:39.329Z,8.90
2017-09-04T05:45:06.853Z,8.90
2017-09-04T05:47:34.373Z,8.80
2017-09-04T05:50:01.906Z,8.90
2017-09-04T05:52:29.429Z,8.90
2017-09-04T05:54:57.948Z,9.00
2017-09-04T05:57:25.485Z,9.00
2017-09-04T05:59:53.010Z,9.00
2017-09-04T06:02:20.533Z,9.10
2017-09-04T06:04:48.069Z,9.30
2017-09-04T06:07:15.604Z,9.30
2017-09-04T06:09:43.116Z,9.40
2017-09-04T06:12:10.654Z,9.50
2017-09-04T06:14:38.179Z,9.60
2017-09-04T06:17:05.707Z,9.60
2017-09-04T06:19:33.240Z,9.70
2017-09-04T06:22:00.756Z,9.70
2017-09-04T06:24:28.270Z,9.70
2017-09-04T06:26:55.806Z,9.80
2017-09-04T06:29:23.325Z,9.80
2017-09-04T06:31:50.846Z,9.80
2017-09-04T06:34:18.394Z,9.70
2017-09-04T06:36:45.928Z,9.90
2017-09-04T06:39:13.446Z,9.90
2017-09-04T06:41:40.994Z,10.00
2017-09-04T06:44:08.525Z,10.10
2017-09-04T06:46:36.053Z,10.10
2017-09-04T06:49:03.614Z,10.30
2017-09-04T06:51:31.158Z,10.30
2017-09-04T06:53:58.693Z,10.40
2017-09-04T06:56:26.233Z,10.60
2017-09-04T06:58:53.760Z,10.80
2017-09-04T07:01:21.287Z,10.80
2017-09-04T07:03:48.829Z,10.70
2017-09-04T07:06:16.359Z,10.90
2017-09-04T07:08:43.886Z,11.00
2017-09-04T07:11:11.427Z,11.10
2017-09-04T07:13:38.958Z,11.20
2017-09-04T07:16:06.491Z,11.20
2017-09-04T07:18:34.050Z,11.20
2017-09-04T07:21:01.578Z,11.20
2017-09-04T07:23:29.438Z,11.40
2017-09-04T07:25:57.750Z,11.60
2017-09-04T07:28:25.276Z,11.60
2017-09-04T07:30:53.570Z,11.60
2017-09-04T07:33:21.109Z,11.60
2017-09-04T07:35:48.638Z,11.70
2017-09-04T07:38:16.170Z,11.80
2017-09-04T07:40:43.719Z,11.80
2017-09-04T07:43:11.245Z,12.00
2017-09-04T07:45:38.857Z,11.90
2017-09-04T07:48:06.401Z,12.00
2017-09-04T07:50:33.925Z,12.10
2017-09-04T07:53:01.441Z,12.10
2017-09-04T07:55:28.977Z,12.20
2017-09-04T07:57:56.507Z,12.30
2017-09-04T08:00:24.113Z,12.40
2017-09-04T08:02:51.657Z,12.50
2017-09-04T08:05:19.177Z,12.60
2017-09-04T08:07:46.701Z,12.70
2017-09-04T08:10:14.251Z,12.70
2017-09-04T08:12:41.778Z,12.70
2017-09-04T08:15:09.303Z,12.70
2017-09-04T08:17:36.840Z,12.90
2017-09-04T08:20:04.363Z,12.90
2017-09-04T08:22:31.897Z,13.00
2017-09-04T08:24:59.444Z,13.10
2017-09-04T08:27:26.970Z,13.40
2017-09-04T08:29:54.502Z,13.50
2017-09-04T08:32:22.053Z,13.70
2017-09-04T08:34:49.590Z,14.00
2017-09-04T08:37:17.125Z,14.00
2017-09-04T08:39:44.673Z,14.30
2017-09-04T08:42:12.201Z,14.40
2017-09-04T08:44:39.730Z,14.60
2017-09-04T08:47:07.286Z,14.80
2017-09-04T08:49:34.811Z,15.10
2017-09-04T08:52:02.338Z,15.40
2017-09-04T08:54:29.879Z,15.40
2017-09-04T08:56:57.693Z,15.40
2017-09-04T08:59:25.209Z,15.20
2017-09-04T09:01:52.753Z,15.20
2017-09-04T09:04:20.277Z,15.20
2017-09-04T09:06:47.797Z,15.40
2017-09-04T09:09:15.343Z,15.60
2017-09-04T09:11:43.654Z,15.80
2017-09-04T09:14:11.212Z,15.80
2017-09-04T09:16:38.762Z,16.00
2017-09-04T09:19:06.301Z,16.40
2017-09-04T09:21:33.830Z,16.40
2017-09-04T09:24:01.383Z,16.90
2017-09-04T09:26:28.947Z,17.40
2017-09-04T09:28:56.482Z,17.60
2017-09-04T09:31:24.034Z,17.50
2017-09-04T09:33:51.571Z,17.30
2017-09-04T09:36:19.098Z,17.20
2017-09-04T09:38:46.698Z,17.10
2017-09-04T09:41:14.226Z,17.10
2017-09-04T09:43:41.756Z,17.00
2017-09-04T09:46:09.398Z,17.00
2017-09-04T09:48:36.930Z,17.00
2017-09-04T09:51:04.468Z,17.10
2017-09-04T09:53:32.014Z,17.10
2017-09-04T09:55:59.557Z,17.30
2017-09-04T09:58:27.173Z,17.30
2017-09-04T10:00:54.713Z,17.50
2017-09-04T10:03:22.241Z,17.50
2017-09-04T10:05:49.773Z,17.20
2017-09-04T10:08:17.319Z,17.10
2017-09-04T10:10:44.847Z,17.20
2017-09-04T10:13:12.377Z,17.10
2017-09-04T10:15:39.917Z,16.80
2017-09-04T10:18:07.447Z,16.40
2017-09-04T10:20:34.971Z,16.20
2017-09-04T10:23:02.513Z,16.30
2017-09-04T10:25:30.041Z,16.40
2017-09-04T10:27:57.561Z,16.60
2017-09-04T10:30:25.104Z,16.60
2017-09-04T10:32:52.634Z,17.10
2017-09-04T10:35:20.154Z,17.50
2017-09-04T10:37:47.714Z,17.80
2017-09-04T10:40:15.263Z,18.40
2017-09-04T10:42:43.558Z,19.20
2017-09-04T10:45:11.123Z,19.20
2017-09-04T10:47:38.637Z,19.90
2017-09-04T10:50:06.170Z,20.90
2017-09-04T10:52:33.718Z,21.70
2017-09-04T10:55:01.252Z,22.10
2017-09-04T10:57:28.778Z,22.90
2017-09-04T10:59:56.330Z,23.80
2017-09-04T11:02:23.846Z,24.30
2017-09-04T11:04:51.410Z,25.10
2017-09-04T11:07:18.962Z,26.50
2017-09-04T11:09:46.486Z,26.90
2017-09-04T11:12:14.774Z,27.70
2017-09-04T11:14:42.328Z,27.70
2017-09-04T11:17:10.619Z,28.50
2017-09-04T11:19:38.153Z,28.50
2017-09-04T11:22:05.701Z,29.90
2017-09-04T11:24:33.226Z,29.50
2017-09-04T11:27:01.513Z,30.30
2017-09-04T11:29:29.057Z,30.20
2017-09-04T11:31:56.573Z,29.70
2017-09-04T11:34:24.095Z,29.60
2017-09-04T11:36:51.647Z,30.20
2017-09-04T11:39:19.171Z,30.30
2017-09-04T11:41:46.693Z,28.60
2017-09-04T11:44:14.249Z,29.90
2017-09-04T11:46:41.773Z,31.10
2017-09-04T11:49:09.293Z,31.70
2017-09-04T11:51:36.844Z,31.90
2017-09-04T11:54:04.363Z,32.70
2017-09-04T11:56:31.884Z,32.00
2017-09-04T11:58:59.442Z,31.70
2017-09-04T12:01:26.962Z,31.60
2017-09-04T12:03:54.482Z,33.10
2017-09-04T12:06:22.021Z,34.10
2017-09-04T12:08:49.546Z,33.90
2017-09-04T12:11:17.066Z,33.50
2017-09-04T12:13:44.610Z,33.10
2017-09-04T12:16:12.138Z,31.90
2017-09-04T12:18:39.657Z,32.80
2017-09-04T12:21:07.198Z,32.70
2017-09-04T12:23:34.723Z,32.50
2017-09-04T12:26:02.257Z,33.00
2017-09-04T12:28:29.879Z,35.10
2017-09-04T12:30:57.397Z,35.90
2017-09-04T12:33:24.921Z,35.00
2017-09-04T12:35:52.597Z,34.80
2017-09-04T12:38:20.213Z,34.20
2017-09-04T12:40:47.744Z,34.60
2017-09-04T12:43:16.057Z,36.40
2017-09-04T12:45:43.590Z,36.30
2017-09-04T12:48:11.109Z,36.20
2017-09-04T12:50:38.727Z,36.70
2017-09-04T12:53:06.251Z,36.70
2017-09-04T12:55:33.765Z,36.90
2017-09-04T12:58:01.304Z,35.40
2017-09-04T13:00:28.824Z,35.50
2017-09-04T13:02:56.340Z,35.60
2017-09-04T13:05:23.878Z,35.30
2017-09-04T13:07:51.398Z,36.40
2017-09-04T13:13:27.066Z,36.00
2017-09-04T13:16:00.290Z,34.60
2017-09-04T13:18:33.342Z,35.60
2017-09-04T13:21:06.581Z,34.70
2017-09-04T13:26:38.047Z,33.80
2017-09-04T13:29:11.109Z,34.10
2017-09-04T13:31:44.189Z,34.00
2017-09-04T13:34:17.260Z,34.60
2017-09-04T13:36:50.351Z,35.00
2017-09-04T13:42:22.682Z,34.00
2017-09-04T13:47:57.437Z,36.90
2017-09-04T13:50:30.616Z,37.70
2017-09-04T13:52:58.159Z,38.20
2017-09-04T13:55:25.682Z,38.70
2017-09-04T13:57:58.986Z,36.30
2017-09-04T14:03:31.690Z,37.10
2017-09-04T14:06:04.854Z,35.40
2017-09-04T14:11:58.578Z,34.60
2017-09-04T14:17:30.216Z,37.00
2017-09-04T14:19:57.774Z,34.30
2017-09-04T14:22:25.293Z,35.40
2017-09-04T14:24:52.821Z,35.00
2017-09-04T14:27:20.369Z,35.70
2017-09-04T14:29:47.889Z,35.90
2017-09-04T14:32:15.430Z,35.70
2017-09-04T14:34:42.969Z,34.80
2017-09-04T14:37:10.501Z,34.10
2017-09-04T14:39:38.017Z,36.00
2017-09-04T14:42:06.321Z,33.70
2017-09-04T14:44:33.845Z,33.60
2017-09-04T14:49:59.686Z,34.20
2017-09-04T14:52:27.227Z,36.00
2017-09-04T14:54:54.747Z,33.20
2017-09-04T14:57:22.264Z,35.00
2017-09-04T14:59:49.800Z,33.50
2017-09-04T15:02:17.316Z,31.70
2017-09-04T15:04:44.839Z,30.80
2017-09-04T15:07:12.382Z,29.60
2017-09-04T15:09:39.900Z,28.50
2017-09-04T15:12:07.413Z,27.60
2017-09-04T15:14:34.945Z,27.20
2017-09-04T15:17:02.518Z,26.00
2017-09-04T15:19:30.037Z,25.50
2017-09-04T15:21:57.570Z,24.70
2017-09-04T15:24:25.110Z,24.60
2017-09-04T15:26:52.629Z,24.00
2017-09-04T15:29:20.202Z,23.10
2017-09-04T15:31:47.752Z,22.80
2017-09-04T15:34:15.265Z,23.00
2017-09-04T15:36:42.799Z,22.80
2017-09-04T15:39:10.321Z,22.90
2017-09-04T15:41:37.835Z,22.40
2017-09-04T15:44:05.371Z,22.50
2017-09-04T15:46:32.893Z,22.20
2017-09-04T15:49:00.408Z,22.10
2017-09-04T15:51:27.946Z,21.80
2017-09-04T15:53:55.457Z,22.00
2017-09-04T15:56:22.969Z,21.90
2017-09-04T15:58:50.509Z,21.80
2017-09-04T16:01:18.026Z,21.60
2017-09-04T16:03:45.540Z,21.70
2017-09-04T16:06:13.351Z,21.80
2017-09-04T16:08:40.882Z,21.80
2017-09-04T16:11:09.166Z,22.00
2017-09-04T16:13:39.490Z,22.00
2017-09-04T16:16:08.216Z,21.90
2017-09-04T16:21:41.777Z,21.80
2017-09-04T16:24:10.217Z,21.90
2017-09-04T16:26:52.612Z,21.80
2017-09-04T16:29:20.153Z,21.60
2017-09-04T16:31:50.450Z,21.20
2017-09-04T16:37:23.793Z,21.10
2017-09-04T16:39:51.329Z,20.90
2017-09-04T16:42:22.447Z,20.80
2017-09-04T16:44:49.967Z,20.90
2017-09-04T16:47:27.414Z,20.80
2017-09-04T16:49:55.390Z,20.60
2017-09-04T16:52:25.355Z,20.30
2017-09-04T16:54:52.895Z,20.00
2017-09-04T16:57:23.837Z,19.80
2017-09-04T16:59:51.353Z,19.60
2017-09-04T17:02:18.899Z,19.50
2017-09-04T17:04:46.414Z,19.30
2017-09-04T17:07:13.934Z,19.20
2017-09-04T17:09:42.094Z,19.00
2017-09-04T17:12:13.050Z,18.90
2017-09-04T17:14:40.594Z,18.90
2017-09-04T17:17:09.034Z,18.80
2017-09-04T17:19:48.366Z,18.70
2017-09-04T17:22:15.918Z,18.60
2017-09-04T17:24:43.438Z,18.40
2017-09-04T17:27:11.144Z,18.30
2017-09-04T17:29:38.702Z,18.20
2017-09-04T17:32:06.225Z,18.10
2017-09-04T17:34:33.750Z,17.90
2017-09-04T17:37:01.293Z,17.70
2017-09-04T17:39:28.826Z,17.50
2017-09-04T17:41:56.342Z,17.30
2017-09-04T17:44:23.882Z,17.20
2017-09-04T17:46:51.405Z,17.10
2017-09-04T17:49:18.927Z,16.90
2017-09-04T17:51:46.457Z,16.70
2017-09-04T17:54:13.973Z,16.60
2017-09-04T17:56:41.555Z,16.40
2017-09-04T17:59:09.328Z,16.30
2017-09-04T18:01:36.843Z,16.10
2017-09-04T18:04:04.395Z,16.00
2017-09-04T18:06:31.955Z,15.90
2017-09-04T18:08:59.468Z,15.80
2017-09-04T18:11:26.988Z,15.70
2017-09-04T18:13:54.531Z,15.60
2017-09-04T18:16:22.048Z,15.60
2017-09-04T18:18:49.567Z,15.50
2017-09-04T18:21:17.881Z,15.50
2017-09-04T18:23:45.416Z,15.40
2017-09-04T18:26:12.972Z,15.50
2017-09-04T18:28:41.429Z,15.40
2017-09-04T18:31:08.950Z,15.40
2017-09-04T18:33:36.470Z,15.50
2017-09-04T18:36:04.017Z,15.40
2017-09-04T18:38:31.542Z,15.40
2017-09-04T18:40:59.065Z,15.40
2017-09-04T18:43:26.610Z,15.40
2017-09-04T18:45:54.140Z,15.40
2017-09-04T18:48:21.659Z,15.40
2017-09-04T18:50:49.206Z,15.40
2017-09-04T18:53:16.717Z,15.40
2017-09-04T18:55:44.469Z,15.40
2017-09-04T18:58:12.039Z,15.40
2017-09-04T19:00:39.566Z,15.40
2017-09-04T19:03:07.101Z,15.40
2017-09-04T19:05:34.650Z,15.40
2017-09-04T19:08:02.171Z,15.40
2017-09-04T19:10:29.691Z,15.40
2017-09-04T19:12:57.230Z,15.30
2017-09-04T19:15:24.744Z,15.10
2017-09-04T19:17:52.262Z,15.00
2017-09-04T19:20:19.810Z,14.90
2017-09-04T19:22:47.336Z,14.70
2017-09-04T19:25:14.858Z,14.60
2017-09-04T19:27:42.421Z,14.50
2017-09-04T19:30:09.938Z,14.40
2017-09-04T19:32:37.459Z,14.30
2017-09-04T19:35:05.006Z,14.20
2017-09-04T19:37:32.525Z,14.10
2017-09-04T19:40:00.053Z,14.00
2017-09-04T19:42:27.605Z,14.00
2017-09-04T19:44:55.137Z,13.90
2017-09-04T19:47:22.663Z,13.90
2017-09-04T19:49:50.216Z,13.90
2017-09-04T19:52:17.731Z,13.80
2017-09-04T19:54:45.255Z,13.70
2017-09-04T19:57:12.803Z,13.60
2017-09-04T19:59:40.331Z,13.50
2017-09-04T20:02:07.845Z,13.40
2017-09-04T20:04:35.384Z,13.40
2017-09-04T20:07:02.911Z,13.30
2017-09-04T20:09:30.438Z,13.20
2017-09-04T20:11:57.990Z,13.20
2017-09-04T20:14:25.506Z,13.10
2017-09-04T20:16:53.034Z,13.00
2017-09-04T20:19:20.578Z,12.90
2017-09-04T20:21:48.101Z,12.90
2017-09-04T20:24:15.662Z,12.80
2017-09-04T20:26:43.206Z,12.80
2017-09-04T20:29:10.730Z,12.70
2017-09-04T20:31:38.310Z,12.70
2017-09-04T20:34:06.089Z,12.60
2017-09-04T20:36:33.609Z,12.60
2017-09-04T20:39:01.140Z,12.50
2017-09-04T20:41:28.689Z,12.50
2017-09-04T20:43:56.223Z,12.40
2017-09-04T20:46:23.750Z,12.40
2017-09-04T20:48:51.297Z,12.30
2017-09-04T20:51:18.817Z,12.20
2017-09-04T20:53:46.337Z,12.20
2017-09-04T20:56:13.889Z,12.10
2017-09-04T20:58:41.421Z,12.10
2017-09-04T21:01:08.942Z,12.00
2017-09-04T21:03:36.488Z,12.00
2017-09-04T21:06:04.005Z,11.90
2017-09-04T21:08:31.521Z,11.90
2017-09-04T21:10:59.064Z,11.80
2017-09-04T21:13:26.588Z,11.70
2017-09-04T21:15:54.114Z,11.70
2017-09-04T21:18:21.666Z,11.60
2017-09-04T21:20:49.190Z,11.60
2017-09-04T21:23:16.743Z,11.50
2017-09-04T21:25:44.282Z,11.50
2017-09-04T21:28:11.808Z,11.40
2017-09-04T21:30:39.326Z,11.40
2017-09-04T21:33:06.874Z,11.30
2017-09-04T21:35:34.389Z,11.30
2017-09-04T21:38:01.909Z,11.20
2017-09-04T21:40:29.457Z,11.20
2017-09-04T21:42:57.222Z,11.10
2017-09-04T21:45:24.752Z,11.10
2017-09-04T21:47:52.302Z,11.00
2017-09-04T21:50:19.824Z,11.00
2017-09-04T21:52:47.463Z,11.00
2017-09-04T21:55:15.009Z,11.10
2017-09-04T21:57:42.555Z,11.00
2017-09-04T22:00:10.107Z,11.10
2017-09-04T22:02:37.647Z,11.10
2017-09-04T22:05:05.177Z,11.10
2017-09-04T22:07:32.700Z,11.10
2017-09-04T22:10:00.245Z,11.10
2017-09-04T22:12:27.766Z,11.10
2017-09-04T22:14:55.294Z,11.10
2017-09-04T22:17:22.846Z,11.10
2017-09-04T22:19:50.371Z,11.10
2017-09-04T22:22:17.898Z,11.10
2017-09-04T22:24:45.442Z,11.10
2017-09-04T22:27:13.730Z,11.20
2017-09-04T22:29:42.014Z,11.20
2017-09-04T22:32:09.642Z,11.20
2017-09-04T22:34:37.166Z,11.20
2017-09-04T22:37:04.685Z,11.20
2017-09-04T22:39:32.229Z,11.20
2017-09-04T22:41:59.757Z,11.20
2017-09-04T22:44:27.286Z,11.20
2017-09-04T22:46:54.842Z,11.20
2017-09-04T22:49:22.357Z,11.20
2017-09-04T22:51:49.886Z,11.10
2017-09-04T22:54:17.429Z,11.10
2017-09-04T22:56:44.958Z,11.00
2017-09-04T23:02:08.767Z,10.80
2017-09-04T23:04:36.317Z,10.80
2017-09-04T23:07:03.865Z,10.70
2017-09-04T23:09:31.394Z,10.70
2017-09-04T23:11:58.946Z,10.60
2017-09-04T23:14:26.476Z,10.60
2017-09-04T23:16:54.004Z,10.60
2017-09-04T23:19:22.312Z,10.50
2017-09-04T23:21:49.846Z,10.50
2017-09-04T23:24:17.378Z,10.50
2017-09-04T23:26:44.934Z,10.50
2017-09-04T23:29:12.462Z,10.50
2017-09-04T23:31:40.118Z,10.40
2017-09-04T23:34:07.670Z,10.30
2017-09-04T23:36:35.238Z,10.30
2017-09-04T23:39:02.778Z,10.20
2017-09-04T23:41:30.330Z,10.20
2017-09-04T23:43:57.889Z,10.20
2017-09-04T23:46:25.401Z,10.10
2017-09-04T23:48:52.957Z,10.10
2017-09-04T23:51:20.481Z,10.10
2017-09-04T23:53:48.009Z,10.00
2017-09-04T23:56:15.561Z,10.00
2017-09-04T23:58:43.093Z,10.00
